createdAt,value
2023-07-25T00:03:29.811Z,95.8
2023-07-25T00:08:29.811Z,95.79
2023-07-25T00:13:29.814Z,95.78
2023-07-25T00:18:29.816Z,95.78
2023-07-25T00:23:29.802Z,95.78
2023-07-25T00:28:29.885Z,95.78
2023-07-25T00:33:30.019Z,95.77
2023-07-25T00:38:29.848Z,95.76
2023-07-25T00:43:30.174Z,95.75
2023-07-25T00:48:30.025Z,95.75
2023-07-25T00:53:29.830Z,95.75
2023-07-25T00:58:29.816Z,95.74
2023-07-25T01:03:29.834Z,95.75
2023-07-25T01:08:29.820Z,95.75
2023-07-25T01:13:29.838Z,95.75
2023-07-25T01:18:29.838Z,95.74
2023-07-25T01:23:29.825Z,95.74
2023-07-25T01:28:29.842Z,95.74
2023-07-25T01:33:29.829Z,95.74
2023-07-25T01:38:29.847Z,95.73
2023-07-25T01:43:29.848Z,95.73
2023-07-25T01:48:29.851Z,95.73
2023-07-25T01:53:29.937Z,95.71
2023-07-25T01:58:29.838Z,95.71
2023-07-25T02:03:29.856Z,95.71
2023-07-25T02:08:30.045Z,95.71
2023-07-25T02:13:29.860Z,95.71
2023-07-25T02:18:29.861Z,95.69
2023-07-25T02:23:29.847Z,95.68
2023-07-25T02:28:29.864Z,95.67
2023-07-25T02:33:29.851Z,95.65
2023-07-25T02:38:29.898Z,95.64
2023-07-25T02:43:29.871Z,95.63
2023-07-25T02:48:29.873Z,95.61
2023-07-25T02:53:29.937Z,95.6
2023-07-25T02:58:30.090Z,95.61
2023-07-25T03:03:29.877Z,95.61
2023-07-25T03:08:29.864Z,95.6
2023-07-25T03:13:30.058Z,95.57
2023-07-25T03:18:29.883Z,95.56
2023-07-25T03:23:29.919Z,95.59
2023-07-25T03:28:29.887Z,95.62
2023-07-25T03:33:29.927Z,95.61
2023-07-25T03:38:29.890Z,95.62
2023-07-25T03:43:29.876Z,95.62
2023-07-25T03:48:29.894Z,95.62
2023-07-25T03:53:29.895Z,95.61
2023-07-25T03:58:29.881Z,95.62
2023-07-25T04:03:29.899Z,95.64
2023-07-25T04:08:29.885Z,95.63
2023-07-25T04:13:29.903Z,95.62
2023-07-25T04:18:29.905Z,95.6
2023-07-25T04:23:29.907Z,95.61
2023-07-25T04:28:29.933Z,95.61
2023-07-25T04:33:29.894Z,95.61
2023-07-25T04:38:29.911Z,95.6
2023-07-25T04:43:29.898Z,95.61
2023-07-25T04:48:30.170Z,95.63
2023-07-25T04:53:29.946Z,95.61
2023-07-25T04:58:29.919Z,95.61
2023-07-25T05:03:29.986Z,95.61
2023-07-25T05:08:29.907Z,95.61
2023-07-25T05:13:30.042Z,95.63
2023-07-25T05:18:30.221Z,95.62
2023-07-25T05:23:29.929Z,95.61
2023-07-25T05:28:29.930Z,95.61
2023-07-25T05:33:29.916Z,95.61
2023-07-25T05:38:29.934Z,95.61
2023-07-25T05:43:29.920Z,95.6
2023-07-25T05:48:30.135Z,95.61
2023-07-25T05:53:29.939Z,95.62
2023-07-25T05:58:30.100Z,95.61
2023-07-25T06:03:30.218Z,95.6
2023-07-25T06:08:30.073Z,95.6
2023-07-25T06:13:29.947Z,95.61
2023-07-25T06:18:30.068Z,95.61
2023-07-25T06:23:30.080Z,95.6
2023-07-25T06:28:29.952Z,95.59
2023-07-25T06:33:29.955Z,95.59
2023-07-25T06:38:29.957Z,95.58
2023-07-25T06:43:30.007Z,95.58
2023-07-25T06:48:29.959Z,95.58
2023-07-25T06:53:29.947Z,95.59
2023-07-25T06:58:30.119Z,95.59
2023-07-25T07:03:29.966Z,95.61
2023-07-25T07:08:29.952Z,95.59
2023-07-25T07:13:29.970Z,95.61
2023-07-25T07:18:29.956Z,95.6
2023-07-25T07:23:29.974Z,95.59
2023-07-25T07:28:29.962Z,95.59
2023-07-25T07:33:29.978Z,95.58
2023-07-25T07:38:30.020Z,95.58
2023-07-25T07:43:29.965Z,95.56
2023-07-25T07:48:29.983Z,95.56
2023-07-25T07:53:29.969Z,95.57
2023-07-25T07:58:29.987Z,95.57
2023-07-25T08:03:29.990Z,95.57
2023-07-25T08:08:30.300Z,95.57
2023-07-25T08:13:30.177Z,95.56
2023-07-25T08:18:29.980Z,95.59
2023-07-25T08:23:29.998Z,95.59
2023-07-25T08:28:29.984Z,95.6
2023-07-25T08:33:30.001Z,95.61
2023-07-25T08:38:30.003Z,95.61
2023-07-25T08:43:30.389Z,95.62
2023-07-25T08:48:30.008Z,95.62
2023-07-25T08:53:29.994Z,95.62
2023-07-25T08:58:30.012Z,95.62
2023-07-25T09:03:30.014Z,95.61
2023-07-25T09:08:30.016Z,95.6
2023-07-25T09:13:30.061Z,95.59
2023-07-25T09:18:30.308Z,95.56
2023-07-25T09:23:30.074Z,95.57
2023-07-25T09:28:30.009Z,95.56
2023-07-25T09:33:30.148Z,95.54
2023-07-25T09:38:30.030Z,95.53
2023-07-25T09:43:30.171Z,95.53
2023-07-25T09:48:30.035Z,95.53
2023-07-25T09:53:30.021Z,95.52
2023-07-25T09:58:30.039Z,95.52
2023-07-25T10:03:30.027Z,95.51
2023-07-25T10:08:30.187Z,95.52
2023-07-25T10:13:30.048Z,95.52
2023-07-25T10:18:30.035Z,95.51
2023-07-25T10:23:30.199Z,95.51
2023-07-25T10:28:30.041Z,95.51
2023-07-25T10:33:30.059Z,95.53
2023-07-25T10:38:30.061Z,95.54
2023-07-25T10:43:30.064Z,95.54
2023-07-25T10:48:30.335Z,95.57
2023-07-25T10:53:30.053Z,95.56
2023-07-25T10:58:30.072Z,95.55
2023-07-25T11:03:30.058Z,95.53
2023-07-25T11:08:30.302Z,95.5
2023-07-25T11:13:30.079Z,95.5
2023-07-25T11:18:30.281Z,95.5
2023-07-25T11:23:30.215Z,95.5
2023-07-25T11:28:30.071Z,95.49
2023-07-25T11:33:30.090Z,95.48
2023-07-25T11:38:30.076Z,95.47
2023-07-25T11:43:30.095Z,95.48
2023-07-25T11:48:30.097Z,95.46
2023-07-25T11:53:30.099Z,95.45
2023-07-25T11:58:30.102Z,95.46
2023-07-25T12:03:30.149Z,95.46
2023-07-25T12:08:30.141Z,95.45
2023-07-25T12:13:30.111Z,95.45
2023-07-25T12:18:30.283Z,95.45
2023-07-25T12:23:30.253Z,95.48
2023-07-25T12:28:30.103Z,95.46
2023-07-25T12:33:30.120Z,95.48
2023-07-25T12:38:30.186Z,95.47
2023-07-25T12:43:30.190Z,95.46
2023-07-25T12:48:30.204Z,95.48
2023-07-25T12:53:30.341Z,95.5
2023-07-25T12:58:30.477Z,95.52
2023-07-25T13:03:30.121Z,95.53
2023-07-25T13:08:30.300Z,95.56
2023-07-25T13:13:30.318Z,95.59
2023-07-25T13:18:30.144Z,95.61
2023-07-25T13:23:30.145Z,95.58
2023-07-25T13:28:30.131Z,95.6
2023-07-25T13:33:30.150Z,95.59
2023-07-25T13:38:30.263Z,95.56
2023-07-25T13:43:30.154Z,95.56
2023-07-25T13:48:30.156Z,95.56
2023-07-25T13:53:30.159Z,95.55
2023-07-25T13:58:30.487Z,95.56
2023-07-25T14:03:30.147Z,95.55
2023-07-25T14:08:30.166Z,95.54
2023-07-25T14:13:30.208Z,95.56
2023-07-25T14:18:30.171Z,95.57
2023-07-25T14:23:30.465Z,95.57
2023-07-25T14:28:30.176Z,95.6
2023-07-25T14:33:30.178Z,95.62
2023-07-25T14:38:30.374Z,95.62
2023-07-25T14:43:30.182Z,95.63
2023-07-25T14:48:30.170Z,95.63
2023-07-25T14:53:30.188Z,95.64
2023-07-25T14:58:30.190Z,95.64
2023-07-25T15:03:30.447Z,95.64
2023-07-25T15:08:30.195Z,95.65
2023-07-25T15:18:30.198Z,95.64
2023-07-25T15:23:30.375Z,95.64
2023-07-25T15:28:30.204Z,95.63
2023-07-25T15:33:30.464Z,95.63
2023-07-25T15:38:30.192Z,95.64
2023-07-25T15:43:30.210Z,95.65
2023-07-25T15:48:30.349Z,95.64
2023-07-25T15:53:30.216Z,95.62
2023-07-25T15:58:30.218Z,95.63
2023-07-25T16:03:35.802Z,95.64
2023-07-25T16:08:30.222Z,95.64
2023-07-25T16:13:30.374Z,95.65
2023-07-25T16:18:30.227Z,95.65
2023-07-25T16:23:30.214Z,95.65
2023-07-25T16:28:30.232Z,95.65
2023-07-25T16:33:30.461Z,95.65
2023-07-25T16:38:30.221Z,95.65
2023-07-25T16:43:30.238Z,95.66
2023-07-25T16:48:30.554Z,95.66
2023-07-25T16:53:30.314Z,95.66
2023-07-25T16:58:30.487Z,95.66
2023-07-25T17:03:30.392Z,95.68
2023-07-25T17:08:30.249Z,95.7
2023-07-25T17:13:30.237Z,95.72
2023-07-25T17:18:30.255Z,95.72
2023-07-25T17:23:30.241Z,95.73
2023-07-25T17:28:30.283Z,95.75
2023-07-25T17:33:30.261Z,95.75
2023-07-25T17:38:30.574Z,95.76
2023-07-25T17:43:30.411Z,95.76
2023-07-25T17:48:30.251Z,95.77
2023-07-25T17:53:30.268Z,95.78
2023-07-25T17:58:30.503Z,95.8
2023-07-25T18:03:30.272Z,95.81
2023-07-25T18:08:30.273Z,95.81
2023-07-25T18:13:30.260Z,95.81
2023-07-25T18:18:30.277Z,95.82
2023-07-25T18:23:30.263Z,95.81
2023-07-25T18:28:30.315Z,95.83
2023-07-25T18:33:30.283Z,95.84
2023-07-25T18:38:30.285Z,95.86
2023-07-25T18:43:30.285Z,95.87
2023-07-25T18:48:30.421Z,95.88
2023-07-25T18:53:30.290Z,95.89
2023-07-25T18:58:30.276Z,95.9
2023-07-25T19:03:30.399Z,95.9
2023-07-25T19:08:30.294Z,95.91
2023-07-25T19:13:30.377Z,95.92
2023-07-25T19:18:30.299Z,95.93
2023-07-25T19:23:30.284Z,95.94
2023-07-25T19:28:30.627Z,95.95
2023-07-25T19:33:30.546Z,95.95
2023-07-25T19:38:30.306Z,95.96
2023-07-25T19:43:30.307Z,95.97
2023-07-25T19:48:30.294Z,95.98
2023-07-25T19:53:30.310Z,95.99
2023-07-25T19:58:30.395Z,96
2023-07-25T20:03:30.365Z,96
2023-07-25T20:08:30.315Z,96.02
2023-07-25T20:13:30.318Z,96.03
2023-07-25T20:18:30.333Z,96.03
2023-07-25T20:23:30.305Z,96.05
2023-07-25T20:28:30.364Z,96.05
2023-07-25T20:33:30.427Z,96.06
2023-07-25T20:38:30.350Z,96.07
2023-07-25T20:43:30.328Z,96.07
2023-07-25T20:48:30.391Z,96.07
2023-07-25T20:53:30.330Z,96.08
2023-07-25T20:58:30.317Z,96.08
2023-07-25T21:03:30.334Z,96.09
2023-07-25T21:08:30.335Z,96.09
2023-07-25T21:13:30.338Z,96.09
2023-07-25T21:18:30.402Z,96.09
2023-07-25T21:23:30.325Z,96.1
2023-07-25T21:28:30.344Z,96.1
2023-07-25T21:33:30.328Z,96.1
2023-07-25T21:38:30.484Z,96.1
2023-07-25T21:43:30.371Z,96.11
2023-07-25T21:48:30.349Z,96.11
2023-07-25T21:53:30.381Z,96.12
2023-07-25T21:58:30.336Z,96.12
2023-07-25T22:03:30.354Z,96.13
2023-07-25T22:08:30.401Z,96.13
2023-07-25T22:13:30.486Z,96.15
2023-07-25T22:18:30.358Z,96.15
2023-07-25T22:23:30.345Z,96.15
2023-07-25T22:28:30.533Z,96.16
2023-07-25T22:33:30.349Z,96.16
2023-07-25T22:38:30.400Z,96.16
2023-07-25T22:43:30.352Z,96.16
2023-07-25T22:48:30.369Z,96.17
2023-07-25T22:53:30.394Z,96.17
2023-07-25T22:58:30.356Z,96.17
2023-07-25T23:03:30.373Z,96.18
2023-07-25T23:08:30.359Z,96.18
2023-07-25T23:13:30.377Z,96.17
2023-07-25T23:18:30.556Z,96.18
2023-07-25T23:23:30.380Z,96.18
2023-07-25T23:28:30.514Z,96.18
2023-07-25T23:33:30.368Z,96.18
2023-07-25T23:38:30.385Z,96.19
2023-07-25T23:43:30.371Z,96.2
2023-07-25T23:48:30.706Z,96.2
2023-07-25T23:53:36.345Z,96.2
2023-07-25T23:58:30.376Z,96.2
